createdAt,value
2018-05-09T00:02:19.997Z,63.92
2018-05-09T00:04:48.330Z,65.10
2018-05-09T00:07:17.030Z,65.60
2018-05-09T00:09:45.391Z,64.62
2018-05-09T00:12:13.715Z,65.52
2018-05-09T00:14:42.021Z,65.80
2018-05-09T00:17:10.364Z,66.92
2018-05-09T00:19:38.727Z,67.18
2018-05-09T00:22:06.993Z,67.67
2018-05-09T00:24:35.353Z,68.06
2018-05-09T00:27:03.709Z,67.95
2018-05-09T00:29:32.135Z,67.14
2018-05-09T00:32:01.632Z,67.23
2018-05-09T00:34:29.990Z,65.33
2018-05-09T00:36:58.732Z,64.91
2018-05-09T00:39:27.119Z,64.29
2018-05-09T00:42:00.166Z,66.57
2018-05-09T00:44:28.570Z,65.59
2018-05-09T00:46:57.031Z,66.96
2018-05-09T00:49:25.463Z,67.61
2018-05-09T00:51:54.229Z,68.23
2018-05-09T00:54:36.322Z,66.99
2018-05-09T00:57:06.551Z,67.29
2018-05-09T00:59:35.469Z,67.48
2018-05-09T01:02:03.872Z,67.64
2018-05-09T01:04:32.350Z,68.09
2018-05-09T01:07:00.712Z,68.53
2018-05-09T01:09:31.442Z,69.42
2018-05-09T01:12:00.535Z,68.59
2018-05-09T01:14:29.381Z,69.21
2018-05-09T01:16:58.500Z,70.20
2018-05-09T01:19:26.910Z,69.50
2018-05-09T01:21:55.409Z,69.27
2018-05-09T01:24:24.053Z,67.26
2018-05-09T01:26:53.969Z,67.01
2018-05-09T01:29:22.400Z,65.97
2018-05-09T01:31:50.795Z,69.00
2018-05-09T01:34:19.192Z,68.73
2018-05-09T01:36:47.716Z,69.55
2018-05-09T01:39:16.235Z,68.85
2018-05-09T01:41:44.890Z,68.63
2018-05-09T01:44:13.690Z,69.06
2018-05-09T01:46:42.591Z,69.62
2018-05-09T01:49:10.997Z,69.37
2018-05-09T01:51:40.132Z,68.98
2018-05-09T01:54:08.587Z,69.35
2018-05-09T01:56:37.023Z,69.98
2018-05-09T01:59:05.487Z,69.67
2018-05-09T02:01:33.831Z,69.08
2018-05-09T02:04:02.224Z,69.79
2018-05-09T02:06:30.579Z,69.61
2018-05-09T02:11:35.852Z,68.96
2018-05-09T02:14:04.240Z,70.71
2018-05-09T02:16:32.663Z,70.11
2018-05-09T02:19:01.089Z,70.12
2018-05-09T02:21:29.466Z,70.16
2018-05-09T02:23:57.854Z,69.24
2018-05-09T02:26:26.742Z,69.81
2018-05-09T02:28:57.337Z,70.36
2018-05-09T02:31:25.733Z,69.68
2018-05-09T02:33:54.146Z,70.09
2018-05-09T02:36:30.176Z,69.29
2018-05-09T02:38:58.748Z,69.48
2018-05-09T02:41:27.292Z,68.29
2018-05-09T02:43:57.966Z,68.44
2018-05-09T02:46:26.323Z,68.10
2018-05-09T02:48:55.285Z,68.34
2018-05-09T02:51:23.738Z,69.44
2018-05-09T02:53:52.180Z,70.38
2018-05-09T02:56:21.005Z,69.36
2018-05-09T02:58:49.424Z,69.40
2018-05-09T03:01:17.797Z,69.84
2018-05-09T03:03:46.308Z,71.45
2018-05-09T03:06:14.985Z,71.03
2018-05-09T03:08:43.550Z,71.82
2018-05-09T03:11:11.892Z,71.95
2018-05-09T03:13:40.259Z,72.42
2018-05-09T03:16:08.614Z,71.46
2018-05-09T03:18:36.939Z,72.12
2018-05-09T03:21:05.307Z,72.68
2018-05-09T03:23:33.684Z,72.53
2018-05-09T03:26:02.164Z,72.72
2018-05-09T03:28:30.800Z,73.96
2018-05-09T03:30:59.200Z,73.19
2018-05-09T03:33:27.591Z,74.78
2018-05-09T03:35:55.896Z,74.83
2018-05-09T03:38:27.221Z,75.34
2018-05-09T03:40:55.539Z,75.09
2018-05-09T03:43:24.251Z,74.72
2018-05-09T03:45:53.576Z,74.70
2018-05-09T03:48:21.996Z,75.07
2018-05-09T03:50:50.327Z,74.29
2018-05-09T03:53:18.745Z,75.26
2018-05-09T03:55:47.024Z,74.57
2018-05-09T03:58:15.455Z,75.23
2018-05-09T04:00:43.781Z,75.12
2018-05-09T04:03:23.888Z,74.41
2018-05-09T04:06:05.329Z,74.50
2018-05-09T04:08:45.572Z,74.54
2018-05-09T04:11:13.900Z,73.81
2018-05-09T04:13:42.268Z,73.38
2018-05-09T04:16:10.757Z,73.47
2018-05-09T04:18:39.080Z,73.26
2018-05-09T04:21:07.463Z,73.42
2018-05-09T04:23:36.020Z,74.45
2018-05-09T04:26:04.418Z,73.66
2018-05-09T04:28:32.831Z,73.25
2018-05-09T04:31:01.533Z,72.61
2018-05-09T04:33:30.982Z,72.95
2018-05-09T04:35:59.663Z,73.58
2018-05-09T04:38:28.123Z,72.18
2018-05-09T04:40:56.514Z,70.86
2018-05-09T04:43:25.045Z,70.91
2018-05-09T04:45:53.366Z,70.88
2018-05-09T04:48:21.832Z,69.21
2018-05-09T04:50:50.170Z,68.72
2018-05-09T04:53:18.575Z,69.21
2018-05-09T04:55:46.916Z,67.88
2018-05-09T04:58:15.400Z,66.79
2018-05-09T05:00:43.752Z,66.92
2018-05-09T05:03:12.128Z,66.41
2018-05-09T05:05:40.495Z,66.08
2018-05-09T05:08:08.824Z,66.55
2018-05-09T05:10:37.251Z,66.92
2018-05-09T05:13:05.610Z,67.31
2018-05-09T05:15:33.969Z,68.18
2018-05-09T05:18:02.384Z,67.31
2018-05-09T05:20:30.803Z,67.14
2018-05-09T05:22:59.197Z,66.70
2018-05-09T05:25:27.615Z,66.82
2018-05-09T05:27:56.131Z,67.35
2018-05-09T05:30:24.519Z,67.05
2018-05-09T05:32:53.043Z,66.72
2018-05-09T05:35:21.379Z,66.61
2018-05-09T05:37:49.815Z,66.67
2018-05-09T05:40:18.188Z,66.41
2018-05-09T05:42:46.537Z,65.82
2018-05-09T05:45:15.083Z,65.60
2018-05-09T05:47:43.625Z,64.67
2018-05-09T05:50:12.026Z,64.59
2018-05-09T05:52:42.743Z,62.66
2018-05-09T05:55:11.174Z,61.73
2018-05-09T05:57:39.520Z,60.86
2018-05-09T06:00:07.909Z,60.02
2018-05-09T06:02:36.529Z,61.37
2018-05-09T06:05:04.926Z,61.81
2018-05-09T06:07:33.322Z,61.22
2018-05-09T06:10:02.255Z,56.62
2018-05-09T06:12:30.638Z,52.29
2018-05-09T06:14:59.199Z,48.41
2018-05-09T06:17:27.576Z,45.91
2018-05-09T06:19:55.939Z,43.56
2018-05-09T06:22:24.356Z,41.71
2018-05-09T06:24:52.776Z,40.29
2018-05-09T06:27:21.193Z,37.90
2018-05-09T06:29:49.557Z,37.81
2018-05-09T06:32:17.948Z,37.77
2018-05-09T06:34:46.405Z,38.72
2018-05-09T06:37:14.756Z,36.50
2018-05-09T06:39:43.515Z,33.72
2018-05-09T06:42:11.934Z,38.58
2018-05-09T06:44:40.847Z,37.30
2018-05-09T06:47:10.552Z,36.98
2018-05-09T06:49:38.979Z,36.51
2018-05-09T06:52:07.299Z,35.93
2018-05-09T06:54:35.839Z,36.47
2018-05-09T06:57:04.196Z,38.46
2018-05-09T06:59:32.976Z,36.21
2018-05-09T07:02:01.614Z,35.77
2018-05-09T07:04:29.994Z,35.13
2018-05-09T07:06:58.355Z,34.26
2018-05-09T07:09:26.712Z,32.82
2018-05-09T07:11:55.135Z,33.44
2018-05-09T07:14:23.483Z,32.90
2018-05-09T07:16:51.815Z,34.41
2018-05-09T07:19:20.163Z,33.94
2018-05-09T07:21:48.541Z,33.12
2018-05-09T07:24:17.305Z,33.62
2018-05-09T07:26:45.643Z,33.55
2018-05-09T07:29:13.989Z,35.25
2018-05-09T07:31:45.009Z,35.64
2018-05-09T07:34:13.376Z,36.15
2018-05-09T07:36:42.354Z,37.99
2018-05-09T07:39:14.386Z,39.66
2018-05-09T07:41:42.734Z,36.80
2018-05-09T07:44:11.159Z,36.66
2018-05-09T07:46:39.577Z,36.32
2018-05-09T07:49:08.064Z,37.13
2018-05-09T07:51:36.600Z,38.77
2018-05-09T07:54:04.962Z,39.63
2018-05-09T07:56:33.410Z,40.71
2018-05-09T07:59:01.717Z,42.09
2018-05-09T08:01:30.110Z,41.82
2018-05-09T08:03:58.568Z,42.05
2018-05-09T08:06:26.872Z,39.29
2018-05-09T08:08:55.199Z,38.50
2018-05-09T08:11:23.532Z,36.85
2018-05-09T08:13:51.948Z,33.85
2018-05-09T08:16:20.333Z,32.62
2018-05-09T08:18:48.685Z,32.67
2018-05-09T08:21:17.036Z,33.43
2018-05-09T08:23:45.482Z,33.75
2018-05-09T08:26:14.009Z,34.47
2018-05-09T08:28:42.417Z,34.27
2018-05-09T08:31:10.725Z,35.66
2018-05-09T08:33:39.036Z,33.37
2018-05-09T08:36:07.347Z,34.04
2018-05-09T08:38:35.799Z,35.20
2018-05-09T08:41:04.144Z,33.98
2018-05-09T08:43:32.758Z,34.64
2018-05-09T08:46:01.179Z,33.53
2018-05-09T08:48:29.580Z,35.35
2018-05-09T08:50:57.889Z,37.54
2018-05-09T08:53:26.198Z,39.60
2018-05-09T08:55:54.543Z,39.80
2018-05-09T08:58:22.923Z,41.19
2018-05-09T09:00:51.226Z,43.72
2018-05-09T09:03:19.581Z,42.77
2018-05-09T09:05:47.956Z,43.72
2018-05-09T09:08:16.286Z,44.59
2018-05-09T09:10:44.794Z,45.38
2018-05-09T09:13:13.098Z,45.96
2018-05-09T09:15:41.462Z,45.50
2018-05-09T09:18:09.780Z,46.52
2018-05-09T09:20:38.124Z,48.07
2018-05-09T09:23:06.684Z,46.37
2018-05-09T09:25:35.291Z,45.20
2018-05-09T09:28:03.795Z,44.48
2018-05-09T09:30:32.709Z,44.05
2018-05-09T09:33:01.502Z,41.14
2018-05-09T09:35:30.022Z,39.99
2018-05-09T09:37:58.643Z,39.49
2018-05-09T09:40:27.036Z,38.69
2018-05-09T09:42:55.341Z,36.54
2018-05-09T09:45:23.690Z,35.89
2018-05-09T09:47:52.045Z,34.30
2018-05-09T09:50:20.445Z,34.79
2018-05-09T09:52:48.779Z,34.33
2018-05-09T09:55:17.215Z,36.28
2018-05-09T09:57:45.602Z,34.70
2018-05-09T10:00:13.946Z,35.39
2018-05-09T10:02:42.290Z,36.53
2018-05-09T10:05:10.609Z,36.06
2018-05-09T10:07:38.956Z,35.22
2018-05-09T10:10:07.258Z,34.54
2018-05-09T10:12:35.659Z,34.39
2018-05-09T10:15:04.006Z,34.76
2018-05-09T10:17:32.335Z,33.18
2018-05-09T10:20:00.741Z,34.42
2018-05-09T10:22:29.055Z,34.01
2018-05-09T10:24:57.410Z,34.39
2018-05-09T10:27:25.717Z,32.22
2018-05-09T10:29:54.121Z,32.74
2018-05-09T10:32:22.432Z,33.03
2018-05-09T10:34:50.735Z,31.97
2018-05-09T10:37:19.168Z,32.61
2018-05-09T10:39:47.625Z,32.51
2018-05-09T10:42:15.958Z,32.58
2018-05-09T10:44:44.347Z,34.20
2018-05-09T10:47:12.743Z,35.98
2018-05-09T10:49:41.112Z,36.44
2018-05-09T10:52:09.476Z,34.86
2018-05-09T10:54:37.826Z,36.22
2018-05-09T10:57:06.145Z,36.46
2018-05-09T10:59:34.572Z,38.04
2018-05-09T11:02:02.913Z,35.43
2018-05-09T11:04:31.263Z,35.38
2018-05-09T11:06:59.676Z,35.51
2018-05-09T11:09:28.021Z,36.83
2018-05-09T11:11:56.346Z,34.86
2018-05-09T11:14:24.692Z,36.10
2018-05-09T11:16:53.000Z,34.67
2018-05-09T11:19:21.305Z,35.94
2018-05-09T11:21:49.645Z,35.23
2018-05-09T11:24:17.993Z,35.15
2018-05-09T11:26:46.301Z,36.22
2018-05-09T11:29:14.624Z,36.99
2018-05-09T11:31:42.964Z,35.28
2018-05-09T11:34:11.376Z,35.66
2018-05-09T11:36:39.700Z,35.39
2018-05-09T11:39:08.071Z,34.00
2018-05-09T11:41:36.376Z,34.27
2018-05-09T11:44:04.693Z,35.29
2018-05-09T11:46:33.028Z,35.25
2018-05-09T11:49:01.409Z,35.99
2018-05-09T11:51:29.739Z,36.15
2018-05-09T11:53:58.043Z,36.12
2018-05-09T11:56:26.383Z,38.89
2018-05-09T11:58:54.702Z,39.30
2018-05-09T12:01:23.039Z,40.97
2018-05-09T12:03:51.367Z,39.76
2018-05-09T12:06:19.756Z,36.56
2018-05-09T12:08:48.159Z,35.91
2018-05-09T12:11:16.476Z,36.72
2018-05-09T12:13:44.836Z,37.78
2018-05-09T12:16:13.243Z,36.19
2018-05-09T12:18:41.593Z,37.04
2018-05-09T12:21:10.062Z,37.06
2018-05-09T12:23:38.400Z,35.73
2018-05-09T12:26:06.882Z,34.39
2018-05-09T12:28:35.184Z,35.07
2018-05-09T12:31:03.501Z,37.27
2018-05-09T12:33:31.847Z,38.25
2018-05-09T12:36:00.143Z,38.62
2018-05-09T12:38:28.466Z,38.67
2018-05-09T12:40:56.843Z,39.81
2018-05-09T12:43:25.230Z,39.90
2018-05-09T12:45:53.636Z,40.62
2018-05-09T12:48:22.055Z,40.58
2018-05-09T12:50:50.432Z,38.62
2018-05-09T12:53:18.744Z,39.74
2018-05-09T12:55:47.434Z,38.18
2018-05-09T12:58:15.815Z,39.13
2018-05-09T13:00:45.139Z,38.20
2018-05-09T13:03:13.472Z,38.20
2018-05-09T13:05:41.784Z,38.85
2018-05-09T13:08:10.120Z,39.61
2018-05-09T13:10:38.510Z,39.45
2018-05-09T13:13:06.970Z,37.63
2018-05-09T13:15:35.284Z,37.60
2018-05-09T13:18:03.639Z,38.42
2018-05-09T13:20:31.956Z,37.55
2018-05-09T13:23:00.274Z,37.41
2018-05-09T13:25:28.631Z,38.70
2018-05-09T13:27:56.951Z,39.49
2018-05-09T13:30:25.281Z,40.79
2018-05-09T13:32:53.585Z,42.54
2018-05-09T13:35:21.933Z,45.11
2018-05-09T13:37:50.330Z,52.23
2018-05-09T13:40:18.692Z,58.88
2018-05-09T13:42:47.021Z,61.23
2018-05-09T13:45:15.397Z,63.76
2018-05-09T13:47:43.768Z,64.77
2018-05-09T13:50:12.234Z,64.11
2018-05-09T13:52:40.642Z,63.13
2018-05-09T13:55:09.057Z,64.52
2018-05-09T13:57:37.430Z,60.98
2018-05-09T14:00:05.754Z,62.54
2018-05-09T14:02:34.066Z,63.54
2018-05-09T14:05:02.392Z,62.77
2018-05-09T14:07:30.788Z,60.82
2018-05-09T14:09:59.151Z,57.37
2018-05-09T14:12:27.533Z,54.46
2018-05-09T14:14:55.860Z,49.71
2018-05-09T14:17:24.366Z,48.49
2018-05-09T14:19:52.700Z,46.83
2018-05-09T14:22:21.180Z,46.19
2018-05-09T14:24:49.508Z,43.82
2018-05-09T14:27:17.898Z,42.59
2018-05-09T14:29:46.262Z,43.87
2018-05-09T14:32:14.717Z,45.42
2018-05-09T14:34:42.943Z,44.91
2018-05-09T14:37:11.931Z,45.80
2018-05-09T14:39:40.267Z,47.16
2018-05-09T14:42:08.602Z,46.56
2018-05-09T14:44:37.002Z,46.04
2018-05-09T14:47:05.340Z,45.99
2018-05-09T14:49:33.691Z,45.18
2018-05-09T14:52:02.023Z,43.12
2018-05-09T14:54:30.345Z,42.94
2018-05-09T14:56:58.693Z,42.86
2018-05-09T14:59:27.004Z,42.41
2018-05-09T15:01:55.336Z,43.00
2018-05-09T15:04:23.736Z,41.32
2018-05-09T15:06:52.049Z,40.23
2018-05-09T15:09:20.374Z,38.92
2018-05-09T15:11:49.062Z,40.05
2018-05-09T15:14:17.511Z,41.48
2018-05-09T15:16:45.884Z,41.04
2018-05-09T15:19:14.211Z,42.51
2018-05-09T15:21:42.571Z,42.40
2018-05-09T15:24:10.889Z,42.01
2018-05-09T15:26:39.305Z,43.16
2018-05-09T15:29:07.696Z,42.79
2018-05-09T15:31:39.634Z,42.60
2018-05-09T15:34:07.950Z,41.69
2018-05-09T15:36:36.274Z,42.67
2018-05-09T15:39:04.685Z,43.65
2018-05-09T15:41:32.915Z,43.50
2018-05-09T15:44:01.242Z,43.49
2018-05-09T15:46:29.583Z,42.24
2018-05-09T15:48:57.929Z,42.69
2018-05-09T15:51:26.243Z,42.77
2018-05-09T15:53:54.628Z,43.18
2018-05-09T15:56:23.046Z,43.39
2018-05-09T15:58:51.375Z,44.07
2018-05-09T16:01:19.756Z,44.32
2018-05-09T16:03:48.086Z,46.20
2018-05-09T16:06:16.398Z,45.09
2018-05-09T16:08:44.737Z,44.85
2018-05-09T16:11:13.158Z,44.20
2018-05-09T16:13:41.534Z,42.70
2018-05-09T16:16:09.841Z,43.06
2018-05-09T16:18:38.340Z,44.36
2018-05-09T16:21:06.659Z,43.16
2018-05-09T16:23:34.974Z,43.38
2018-05-09T16:26:03.459Z,43.55
2018-05-09T16:28:31.809Z,44.05
2018-05-09T16:31:00.123Z,45.26
2018-05-09T16:33:28.580Z,45.73
2018-05-09T16:35:56.939Z,45.52
2018-05-09T16:38:25.310Z,44.58
2018-05-09T16:40:53.702Z,44.82
2018-05-09T16:43:22.097Z,45.85
2018-05-09T16:45:50.464Z,45.86
2018-05-09T16:48:19.065Z,45.35
2018-05-09T16:50:47.409Z,45.92
2018-05-09T16:53:15.820Z,45.91
2018-05-09T16:55:44.070Z,46.14
2018-05-09T16:58:12.468Z,45.49
2018-05-09T17:00:40.847Z,44.88
2018-05-09T17:03:09.179Z,45.58
2018-05-09T17:05:37.568Z,45.61
2018-05-09T17:08:05.816Z,46.19
2018-05-09T17:10:34.207Z,46.88
2018-05-09T17:13:02.605Z,48.09
2018-05-09T17:15:31.000Z,47.49
2018-05-09T17:17:59.400Z,47.93
2018-05-09T17:20:27.831Z,47.96
2018-05-09T17:22:56.189Z,48.34
2018-05-09T17:25:25.089Z,48.91
2018-05-09T17:27:53.583Z,49.67
2018-05-09T17:30:22.023Z,50.34
2018-05-09T17:32:50.393Z,49.75
2018-05-09T17:35:18.702Z,49.93
2018-05-09T17:37:47.032Z,50.10
2018-05-09T17:40:15.460Z,50.36
2018-05-09T17:42:43.857Z,50.73
2018-05-09T17:45:12.219Z,51.11
2018-05-09T17:47:40.533Z,51.37
2018-05-09T17:50:08.864Z,51.81
2018-05-09T17:52:37.285Z,52.29
2018-05-09T17:55:05.603Z,52.49
2018-05-09T17:57:33.938Z,52.91
2018-05-09T18:00:02.257Z,53.13
2018-05-09T18:02:30.601Z,53.95
2018-05-09T18:04:58.958Z,53.59
2018-05-09T18:07:27.284Z,54.39
2018-05-09T18:09:55.617Z,54.94
2018-05-09T18:12:24.007Z,55.12
2018-05-09T18:14:52.335Z,55.41
2018-05-09T18:17:20.659Z,56.63
2018-05-09T18:19:48.981Z,56.16
2018-05-09T18:22:17.700Z,56.38
2018-05-09T18:24:50.524Z,56.66
2018-05-09T18:27:18.855Z,57.00
2018-05-09T18:29:47.223Z,57.23
2018-05-09T18:32:15.565Z,58.08
2018-05-09T18:34:43.942Z,57.89
2018-05-09T18:37:12.256Z,58.68
2018-05-09T18:39:40.582Z,58.82
2018-05-09T18:42:08.932Z,58.54
2018-05-09T18:44:37.364Z,58.98
2018-05-09T18:47:05.678Z,58.65
2018-05-09T18:49:34.000Z,59.24
2018-05-09T18:52:02.331Z,59.03
2018-05-09T18:54:30.669Z,59.89
2018-05-09T18:56:59.045Z,60.35
2018-05-09T18:59:27.509Z,60.02
2018-05-09T19:01:55.884Z,59.90
2018-05-09T19:04:24.204Z,60.29
2018-05-09T19:06:52.588Z,60.97
2018-05-09T19:09:20.896Z,60.38
2018-05-09T19:11:49.233Z,60.75
2018-05-09T19:14:17.652Z,61.39
2018-05-09T19:16:46.010Z,61.60
2018-05-09T19:19:14.324Z,61.67
2018-05-09T19:21:42.662Z,61.29
2018-05-09T19:24:10.975Z,60.75
2018-05-09T19:26:39.290Z,61.08
2018-05-09T19:29:07.612Z,61.57
2018-05-09T19:31:35.923Z,60.36
2018-05-09T19:34:04.313Z,60.00
2018-05-09T19:36:32.626Z,60.29
2018-05-09T19:39:00.956Z,60.04
2018-05-09T19:41:29.461Z,60.85
2018-05-09T19:43:57.794Z,60.74
2018-05-09T19:46:26.142Z,60.32
2018-05-09T19:48:54.488Z,60.98
2018-05-09T19:51:22.827Z,60.62
2018-05-09T19:53:51.182Z,60.32
2018-05-09T19:56:19.581Z,60.26
2018-05-09T19:58:47.904Z,60.43
2018-05-09T20:01:16.269Z,60.30
2018-05-09T20:03:44.744Z,60.31
2018-05-09T20:06:13.059Z,60.39
2018-05-09T20:08:41.487Z,61.04
2018-05-09T20:11:09.824Z,60.71
2018-05-09T20:13:38.159Z,60.85
2018-05-09T20:16:06.485Z,60.73
2018-05-09T20:18:34.848Z,60.85
2018-05-09T20:21:03.249Z,60.95
2018-05-09T20:23:31.601Z,61.16
2018-05-09T20:25:59.950Z,61.22
2018-05-09T20:28:28.272Z,61.00
2018-05-09T20:31:02.271Z,61.06
2018-05-09T20:33:30.574Z,62.00
2018-05-09T20:35:58.949Z,61.47
2018-05-09T20:38:27.337Z,61.55
2018-05-09T20:40:55.681Z,61.59
2018-05-09T20:43:24.064Z,61.72
2018-05-09T20:45:52.445Z,61.75
2018-05-09T20:48:20.805Z,63.16
2018-05-09T20:50:49.118Z,63.63
2018-05-09T20:53:17.734Z,62.56
2018-05-09T20:55:46.016Z,62.71
2018-05-09T20:58:14.417Z,62.06
2018-05-09T21:00:42.750Z,61.95
2018-05-09T21:03:11.075Z,62.03
2018-05-09T21:05:39.595Z,62.36
2018-05-09T21:08:07.908Z,62.31
2018-05-09T21:10:36.277Z,62.28
2018-05-09T21:13:04.608Z,62.27
2018-05-09T21:15:32.931Z,62.80
2018-05-09T21:18:01.265Z,63.24
2018-05-09T21:20:29.587Z,63.51
2018-05-09T21:22:57.934Z,64.36
2018-05-09T21:25:26.426Z,65.36
2018-05-09T21:27:54.807Z,66.37
2018-05-09T21:30:23.124Z,66.11
2018-05-09T21:32:51.482Z,66.10
2018-05-09T21:35:19.840Z,67.02
2018-05-09T21:37:48.206Z,66.47
2018-05-09T21:40:16.600Z,66.73
2018-05-09T21:42:44.949Z,67.28
2018-05-09T21:45:13.353Z,67.28
2018-05-09T21:47:41.742Z,67.24
2018-05-09T21:50:10.080Z,66.41
2018-05-09T21:52:38.418Z,67.52
2018-05-09T21:55:06.743Z,67.85
2018-05-09T21:57:35.105Z,67.04
2018-05-09T22:00:03.517Z,67.56
2018-05-09T22:02:31.837Z,67.87
2018-05-09T22:05:00.167Z,68.24
2018-05-09T22:07:28.497Z,67.87
2018-05-09T22:09:56.821Z,67.69
2018-05-09T22:12:25.143Z,67.67
2018-05-09T22:14:53.471Z,68.01
2018-05-09T22:17:21.797Z,67.81
2018-05-09T22:19:50.226Z,67.67
2018-05-09T22:22:18.550Z,67.97
2018-05-09T22:24:46.891Z,67.53
2018-05-09T22:27:15.317Z,67.09
2018-05-09T22:29:43.642Z,66.62
2018-05-09T22:32:12.042Z,67.13
2018-05-09T22:34:40.362Z,66.99
2018-05-09T22:37:08.673Z,66.93
2018-05-09T22:39:37.037Z,67.05
2018-05-09T22:42:05.367Z,67.25
2018-05-09T22:44:33.747Z,67.47
2018-05-09T22:47:02.084Z,67.90
2018-05-09T22:49:30.403Z,67.86
2018-05-09T22:51:58.723Z,68.04
2018-05-09T22:54:27.120Z,68.32
2018-05-09T22:56:55.511Z,68.89
2018-05-09T22:59:23.833Z,68.92
2018-05-09T23:01:52.195Z,69.48
2018-05-09T23:04:20.674Z,69.78
2018-05-09T23:06:49.071Z,70.44
2018-05-09T23:09:17.396Z,70.19
2018-05-09T23:11:45.737Z,70.57
2018-05-09T23:14:14.061Z,69.88
2018-05-09T23:16:42.466Z,70.90
2018-05-09T23:19:10.795Z,70.89
2018-05-09T23:21:39.099Z,70.88
2018-05-09T23:24:07.430Z,72.52
2018-05-09T23:26:35.754Z,72.26
2018-05-09T23:29:04.082Z,72.86
2018-05-09T23:31:32.410Z,73.01
2018-05-09T23:34:00.752Z,72.48
2018-05-09T23:36:29.162Z,72.50
2018-05-09T23:38:57.484Z,72.58
2018-05-09T23:41:25.801Z,72.82
2018-05-09T23:46:45.417Z,72.53
2018-05-09T23:49:13.817Z,73.05
2018-05-09T23:51:42.154Z,73.57
2018-05-09T23:54:10.479Z,73.19
2018-05-09T23:56:38.853Z,73.93
2018-05-09T23:59:07.199Z,73.43
